createdAt,value
2023-03-06T00:02:00.553Z,36.60
2023-03-06T00:04:27.921Z,36.58
2023-03-06T00:06:54.434Z,36.42
2023-03-06T00:09:22.282Z,35.32
2023-03-06T00:11:50.366Z,33.75
2023-03-06T00:14:17.217Z,35.13
2023-03-06T00:16:45.074Z,33.11
2023-03-06T00:19:12.643Z,33.81
2023-03-06T00:21:39.120Z,34.50
2023-03-06T00:24:05.663Z,36.28
2023-03-06T00:26:32.277Z,38.92
2023-03-06T00:28:58.855Z,40.96
2023-03-06T00:31:27.622Z,38.11
2023-03-06T00:33:57.528Z,38.08
2023-03-06T00:36:23.996Z,36.55
2023-03-06T00:38:50.405Z,38.03
2023-03-06T00:41:19.331Z,36.37
2023-03-06T00:43:45.848Z,34.72
2023-03-06T00:46:12.915Z,35.69
2023-03-06T00:48:41.089Z,36.34
2023-03-06T00:51:07.623Z,36.23
2023-03-06T00:53:36.979Z,36.98
2023-03-06T00:56:03.883Z,36.46
2023-03-06T00:58:35.806Z,36.30
2023-03-06T01:01:05.903Z,35.29
2023-03-06T01:03:35.600Z,34.92
2023-03-06T01:06:02.125Z,34.10
2023-03-06T01:08:32.835Z,33.84
2023-03-06T01:11:01.348Z,33.83
2023-03-06T01:13:30.622Z,33.62
2023-03-06T01:15:57.142Z,34.76
2023-03-06T01:18:23.774Z,32.86
2023-03-06T01:20:52.837Z,34.28
2023-03-06T01:23:19.330Z,34.67
2023-03-06T01:25:48.463Z,34.27
2023-03-06T01:28:16.482Z,33.91
2023-03-06T01:30:43.105Z,36.14
2023-03-06T01:33:09.804Z,36.90
2023-03-06T01:35:37.616Z,36.65
2023-03-06T01:38:05.728Z,37.33
2023-03-06T01:40:32.554Z,37.33
2023-03-06T01:42:59.562Z,36.55
2023-03-06T01:45:27.389Z,36.79
2023-03-06T01:47:54.316Z,36.82
2023-03-06T01:50:21.194Z,36.45
2023-03-06T01:52:50.284Z,36.84
2023-03-06T01:55:17.835Z,37.54
2023-03-06T01:57:46.789Z,38.40
2023-03-06T02:00:14.630Z,37.61
2023-03-06T02:02:41.471Z,38.29
2023-03-06T02:05:08.033Z,37.56
2023-03-06T02:07:34.936Z,36.89
2023-03-06T02:10:01.733Z,36.57
2023-03-06T02:12:28.218Z,37.11
2023-03-06T02:14:54.839Z,38.57
2023-03-06T02:17:21.443Z,37.11
2023-03-06T02:19:49.985Z,38.00
2023-03-06T02:22:16.776Z,37.24
2023-03-06T02:24:43.774Z,37.94
2023-03-06T02:27:13.122Z,36.60
2023-03-06T02:29:39.768Z,36.78
2023-03-06T02:32:08.654Z,36.23
2023-03-06T02:34:36.959Z,35.58
2023-03-06T02:37:03.706Z,36.58
2023-03-06T02:39:30.499Z,35.50
2023-03-06T02:41:57.359Z,33.90
2023-03-06T02:44:24.275Z,32.90
2023-03-06T02:46:53.314Z,32.94
2023-03-06T02:49:26.566Z,32.48
2023-03-06T02:51:54.645Z,33.64
2023-03-06T02:54:21.705Z,32.87
2023-03-06T02:56:49.740Z,32.97
2023-03-06T02:59:16.634Z,33.67
2023-03-06T03:01:43.384Z,33.67
2023-03-06T03:04:09.947Z,33.76
2023-03-06T03:06:36.527Z,34.36
2023-03-06T03:09:08.981Z,35.77
2023-03-06T03:31:30.415Z,36.06
2023-03-06T03:39:31.652Z,37.63
2023-03-06T03:42:11.162Z,36.61
2023-03-06T03:46:19.877Z,35.39
2023-03-06T03:56:51.024Z,35.66
2023-03-06T04:11:37.104Z,35.32
2023-03-06T04:23:37.540Z,36.78
2023-03-06T04:34:21.798Z,34.70
2023-03-06T04:40:00.166Z,34.54
2023-03-06T05:01:51.942Z,31.68
2023-03-06T05:04:19.700Z,30.89
2023-03-06T05:06:52.688Z,32.01
2023-03-06T05:09:26.728Z,32.47
2023-03-06T05:11:53.196Z,31.22
2023-03-06T05:14:22.850Z,31.89
2023-03-06T05:53:20.031Z,32.93
2023-03-06T08:27:21.944Z,33.86
2023-03-06T08:32:32.374Z,34.64
2023-03-06T08:34:58.827Z,34.50
2023-03-06T08:37:28.138Z,35.51
2023-03-06T08:39:54.629Z,36.83
2023-03-06T08:42:21.078Z,35.39
2023-03-06T08:44:47.729Z,35.32
2023-03-06T08:47:14.142Z,35.84
2023-03-06T08:49:42.636Z,36.19
2023-03-06T08:52:10.097Z,36.16
2023-03-06T08:54:39.252Z,34.54
2023-03-06T08:57:05.814Z,36.60
2023-03-06T08:59:32.294Z,35.56
2023-03-06T09:04:49.394Z,36.32
2023-03-06T09:07:15.867Z,36.47
2023-03-06T09:09:42.261Z,35.44
2023-03-06T09:12:23.673Z,36.33
2023-03-06T09:14:56.274Z,36.91
2023-03-06T09:20:15.250Z,38.54
2023-03-06T09:30:59.197Z,42.62
2023-03-06T09:33:26.293Z,42.14
2023-03-06T09:35:53.008Z,39.55
2023-03-06T09:38:19.922Z,37.02
2023-03-06T09:40:46.472Z,37.38
2023-03-06T09:43:13.069Z,35.73
2023-03-06T09:45:39.645Z,32.94
2023-03-06T09:48:08.489Z,31.33
2023-03-06T09:50:35.031Z,31.71
2023-03-06T09:53:01.394Z,32.09
2023-03-06T09:55:27.772Z,33.55
2023-03-06T09:57:54.231Z,34.06
2023-03-06T10:00:20.713Z,33.55
2023-03-06T10:02:48.196Z,35.63
2023-03-06T10:05:17.525Z,34.05
2023-03-06T10:07:46.238Z,31.65
2023-03-06T15:36:54.879Z,13.99
2023-03-06T15:39:21.429Z,11.84
2023-03-06T15:41:48.082Z,12.06
2023-03-06T15:44:15.617Z,11.94
2023-03-06T15:46:42.343Z,12.86
2023-03-06T15:49:08.797Z,12.27
2023-03-06T15:51:35.577Z,12.25
2023-03-06T15:54:12.404Z,11.97
2023-03-06T15:56:39.407Z,11.95
2023-03-06T15:59:05.807Z,12.37
2023-03-06T16:01:32.356Z,12.17
2023-03-06T16:06:42.280Z,12.88
2023-03-06T16:09:16.291Z,13.07
2023-03-06T16:11:44.119Z,12.41
2023-03-06T16:14:10.622Z,13.34
2023-03-06T16:16:38.271Z,13.23
2023-03-06T16:19:06.051Z,12.48
2023-03-06T16:21:34.125Z,12.82
2023-03-06T16:24:00.706Z,13.11
2023-03-06T16:26:27.616Z,13.61
2023-03-06T16:29:02.103Z,13.31
2023-03-06T16:37:03.473Z,13.93
2023-03-06T16:39:34.178Z,14.35
2023-03-06T16:42:07.185Z,13.56
2023-03-06T16:44:38.702Z,13.90
2023-03-06T16:47:09.426Z,14.04
2023-03-06T16:49:36.026Z,13.51
2023-03-06T16:52:02.530Z,13.24
2023-03-06T16:54:33.775Z,13.49
2023-03-06T16:57:08.082Z,13.85
2023-03-06T16:59:35.213Z,14.44
2023-03-06T17:02:01.825Z,13.90
2023-03-06T17:04:28.515Z,14.53
2023-03-06T17:06:59.473Z,14.26
2023-03-06T17:09:28.126Z,14.99
2023-03-06T17:11:58.111Z,14.51
2023-03-06T17:14:33.838Z,14.71
2023-03-06T17:17:18.589Z,14.29
2023-03-06T17:19:46.334Z,15.46
2023-03-06T17:22:16.321Z,14.88
2023-03-06T17:24:43.232Z,15.19
2023-03-06T17:27:10.274Z,15.13
2023-03-06T17:29:37.707Z,14.06
2023-03-06T17:32:06.890Z,15.33
2023-03-06T17:34:33.791Z,15.46
2023-03-06T17:37:00.358Z,15.22
2023-03-06T17:39:26.773Z,15.28
2023-03-06T17:41:53.174Z,14.59
2023-03-06T17:44:23.023Z,14.90
2023-03-06T17:46:49.866Z,14.63
2023-03-06T17:49:16.681Z,14.73
2023-03-06T17:51:47.000Z,14.42
2023-03-06T17:54:13.544Z,14.94
2023-03-06T17:56:40.182Z,15.73
2023-03-06T17:59:06.787Z,15.78
2023-03-06T18:01:33.392Z,18.28
2023-03-06T18:03:59.766Z,20.83
2023-03-06T18:06:26.360Z,16.97
2023-03-06T18:08:56.692Z,17.30
2023-03-06T18:11:23.081Z,16.09
2023-03-06T18:13:49.762Z,16.34
2023-03-06T18:16:16.158Z,15.96
2023-03-06T18:18:44.946Z,14.97
2023-03-06T18:21:15.861Z,15.32
2023-03-06T18:23:42.317Z,15.14
2023-03-06T18:26:16.215Z,15.05
2023-03-06T18:28:46.048Z,14.36
2023-03-06T18:31:12.792Z,14.64
2023-03-06T18:33:39.351Z,14.38
2023-03-06T18:36:06.791Z,14.23
2023-03-06T18:38:34.935Z,14.73
2023-03-06T18:41:01.526Z,14.44
2023-03-06T18:43:27.998Z,15.16
2023-03-06T18:45:54.456Z,15.70
2023-03-06T18:48:21.103Z,14.71
2023-03-06T18:50:47.922Z,15.46
2023-03-06T18:53:17.352Z,15.64
2023-03-06T18:55:43.826Z,15.34
2023-03-06T18:58:10.475Z,15.27
2023-03-06T19:00:37.927Z,15.47
2023-03-06T19:03:06.576Z,15.72
2023-03-06T19:05:35.798Z,16.09
2023-03-06T19:08:02.464Z,15.16
2023-03-06T19:10:29.171Z,15.82
2023-03-06T19:12:56.859Z,16.17
2023-03-06T19:15:25.781Z,16.10
2023-03-06T19:17:52.387Z,15.82
2023-03-06T19:20:19.292Z,15.52
2023-03-06T19:22:45.916Z,15.71
2023-03-06T19:25:12.440Z,16.16
2023-03-06T19:27:38.921Z,16.45
2023-03-06T19:30:05.417Z,16.32
2023-03-06T19:32:32.259Z,16.00
2023-03-06T19:35:01.718Z,16.01
2023-03-06T19:37:28.186Z,16.59
2023-03-06T19:39:55.207Z,16.50
2023-03-06T19:42:21.598Z,16.45
2023-03-06T19:44:47.993Z,17.34
2023-03-06T19:47:14.337Z,16.55
2023-03-06T19:49:40.747Z,17.12
2023-03-06T19:52:09.334Z,16.74
2023-03-06T19:54:35.911Z,17.77
2023-03-06T19:57:02.312Z,17.06
2023-03-06T19:59:28.784Z,16.66
2023-03-06T20:01:55.201Z,16.67
2023-03-06T20:04:21.822Z,17.21
2023-03-06T20:06:48.768Z,16.74
2023-03-06T20:09:15.171Z,17.39
2023-03-06T20:11:41.531Z,16.91
2023-03-06T20:14:08.198Z,17.29
2023-03-06T20:16:34.651Z,17.96
2023-03-06T20:19:01.483Z,17.59
2023-03-06T20:21:28.121Z,16.98
2023-03-06T20:23:56.795Z,16.33
2023-03-06T20:26:23.147Z,16.32
2023-03-06T20:28:50.517Z,16.58
2023-03-06T20:31:18.001Z,16.75
2023-03-06T20:33:44.527Z,16.50
2023-03-06T20:36:10.948Z,17.14
2023-03-06T20:38:37.396Z,16.49
2023-03-06T20:41:03.871Z,16.13
2023-03-06T20:43:30.623Z,15.77
2023-03-06T20:45:57.372Z,16.12
2023-03-06T20:48:24.164Z,16.64
2023-03-06T20:50:50.801Z,16.55
2023-03-06T20:53:17.518Z,16.44
2023-03-06T20:55:44.178Z,17.08
2023-03-06T20:58:10.563Z,17.39
2023-03-06T21:00:36.924Z,17.20
2023-03-06T21:03:03.333Z,17.10
2023-03-06T21:05:29.832Z,17.21
2023-03-06T21:07:56.256Z,17.04
2023-03-06T21:10:23.691Z,17.16
2023-03-06T21:12:52.156Z,16.82
2023-03-06T21:15:18.678Z,16.66
2023-03-06T21:17:49.103Z,17.01
2023-03-06T21:20:15.860Z,16.79
2023-03-06T21:22:42.554Z,16.89
2023-03-06T21:25:09.984Z,16.74
2023-03-06T21:27:36.375Z,17.77
2023-03-06T21:30:02.791Z,16.88
2023-03-06T21:32:29.199Z,16.96
2023-03-06T21:34:55.600Z,17.21
2023-03-06T21:37:21.949Z,16.66
2023-03-06T21:39:48.353Z,16.70
2023-03-06T21:42:14.721Z,17.31
2023-03-06T21:44:41.147Z,16.96
2023-03-06T21:47:07.539Z,16.38
2023-03-06T21:49:33.939Z,16.02
2023-03-06T21:52:00.350Z,16.85
2023-03-06T21:54:26.742Z,17.06
2023-03-06T21:57:00.819Z,16.76
2023-03-06T21:59:27.210Z,16.60
2023-03-06T22:01:53.610Z,16.91
2023-03-06T22:04:20.017Z,17.34
2023-03-06T22:06:46.489Z,16.95
2023-03-06T22:09:12.863Z,17.14
2023-03-06T22:11:39.208Z,16.48
2023-03-06T22:14:05.918Z,16.08
2023-03-06T22:16:32.321Z,16.56
2023-03-06T22:18:58.864Z,16.86
2023-03-06T22:21:26.303Z,16.51
2023-03-06T22:23:52.697Z,16.93
2023-03-06T22:26:21.341Z,16.58
2023-03-06T22:28:48.083Z,16.62
2023-03-06T22:31:14.570Z,16.53
2023-03-06T22:33:40.971Z,17.20
2023-03-06T22:36:07.341Z,17.86
2023-03-06T22:38:37.506Z,17.70
2023-03-06T22:41:04.228Z,18.21
2023-03-06T22:43:31.678Z,18.86
2023-03-06T22:45:58.208Z,18.40
2023-03-06T22:48:31.942Z,18.34
2023-03-06T22:50:58.396Z,17.62
2023-03-06T22:53:24.761Z,17.62
2023-03-06T22:55:54.404Z,17.02
2023-03-06T22:58:20.923Z,17.74
2023-03-06T23:00:48.311Z,17.53
2023-03-06T23:03:14.914Z,17.60
2023-03-06T23:05:41.275Z,17.57
2023-03-06T23:08:08.658Z,17.26
2023-03-06T23:10:35.225Z,17.31
2023-03-06T23:13:01.606Z,16.50
2023-03-06T23:15:28.023Z,16.94
2023-03-06T23:17:54.414Z,17.13
2023-03-06T23:20:22.985Z,16.21
2023-03-06T23:22:50.250Z,16.73
2023-03-06T23:25:16.644Z,16.40
2023-03-06T23:27:43.416Z,16.43
2023-03-06T23:30:09.765Z,16.46
2023-03-06T23:32:36.143Z,16.84
2023-03-06T23:35:03.545Z,17.06
2023-03-06T23:37:29.951Z,16.47
2023-03-06T23:39:56.529Z,16.20
2023-03-06T23:42:22.970Z,16.11
2023-03-06T23:44:51.689Z,16.45
2023-03-06T23:47:18.079Z,15.76
2023-03-06T23:49:44.480Z,15.77
2023-03-06T23:52:10.902Z,16.36
2023-03-06T23:54:37.258Z,15.76
2023-03-06T23:57:03.782Z,16.96
2023-03-06T23:59:30.331Z,16.49
